Sharbot Lake, Canada
Current Conditions -  °F | °C
As of 11:00 PM on Tuesday 21 Oct 2014 (Local Time) from CYGK Reporting Station
Overcast Overcast  
Wind Chill: 38°   Ceiling: 2000
Heat Index: 45°   Visibility: 15mi
Dew Point: 37°   Wind: 15mph
Humidity: 76%   Direction: 30°NNE
Pressure: 30.11"   Gusts: 25mph
Location:  44.77°N, 76.68°W
Report Text: CYGK 220300Z 03013G22KT 15SM BKN020 OVC120 07/03 A3011 RMK SC6AC2 LAST OBS/NEXT 221000 UTC SLP199
Loading
Personal Weather Stations






























Interactive Weather Map
Tropical Storm Tracking
New forecast layout! Learn more

10-Day Weather Forecast

Advertisements
Track Severe Weather on mobile